Terminal Aerodrome Forecast
Issued by NWS

Home | Current Version | Previous Version | Text Only | Print | Product List | Glossary On
Versions: 1 2 3 4 5 6 7 8 9 10 11 12 13 14 15 16 17 18 19 20 21 22 23 24 25 26
000
FTUS41 KBGM 212300
TAFITH
TAF
KITH 212340Z 2200/2224 24005KT P6SM SCT025 BKN070
     FM220700 VRB03KT 4SM BR BKN015
      TEMPO 2210/2213 BKN009
     FM221600 17003KT P6SM -SHRA BKN035=

USA.gov is the U.S. government's official web portal to all federal, state and local government web resources and services.